createdAt,value
2023-05-13T00:01:38.651Z,16.49
2023-05-13T00:04:07.519Z,16.53
2023-05-13T00:06:37.440Z,16.53
2023-05-13T00:09:06.069Z,16.53
2023-05-13T00:11:35.488Z,16.53
2023-05-13T00:14:04.256Z,16.53
2023-05-13T00:16:32.695Z,16.55
2023-05-13T00:19:01.207Z,16.55
2023-05-13T00:21:29.583Z,16.55
2023-05-13T00:23:59.406Z,16.56
2023-05-13T00:26:27.718Z,16.56
2023-05-13T00:28:56.127Z,16.56
2023-05-13T00:31:24.508Z,16.57
2023-05-13T00:33:52.907Z,16.59
2023-05-13T00:36:21.331Z,16.59
2023-05-13T00:38:49.697Z,16.59
2023-05-13T00:41:19.760Z,16.57
2023-05-13T00:43:48.260Z,16.57
2023-05-13T00:46:17.233Z,16.57
2023-05-13T00:48:45.886Z,16.58
2023-05-13T00:51:14.285Z,16.58
2023-05-13T00:53:44.030Z,16.56
2023-05-13T00:56:12.547Z,16.57
2023-05-13T00:58:42.284Z,16.56
2023-05-13T01:01:22.108Z,16.54
2023-05-13T01:04:02.744Z,16.55
2023-05-13T01:06:41.845Z,16.54
2023-05-13T01:09:18.219Z,16.56
2023-05-13T01:11:50.040Z,16.58
2023-05-13T01:14:26.453Z,16.58
2023-05-13T01:17:02.609Z,16.61
2023-05-13T01:19:43.252Z,16.61
2023-05-13T01:22:13.069Z,16.63
2023-05-13T01:24:41.546Z,16.62
2023-05-13T01:27:10.327Z,16.61
2023-05-13T01:29:40.926Z,16.61
2023-05-13T01:32:12.507Z,16.61
2023-05-13T01:34:41.875Z,16.62
2023-05-13T01:37:10.294Z,16.62
2023-05-13T01:39:40.426Z,16.61
2023-05-13T01:42:09.484Z,16.59
2023-05-13T01:44:37.892Z,16.57
2023-05-13T01:47:07.017Z,16.55
2023-05-13T01:49:35.411Z,16.55
2023-05-13T01:52:04.280Z,16.55
2023-05-13T01:54:32.685Z,16.54
2023-05-13T01:57:02.469Z,16.52
2023-05-13T01:59:30.954Z,16.52
2023-05-13T02:01:59.326Z,16.52
2023-05-13T02:04:28.264Z,16.52
2023-05-13T02:06:56.635Z,16.51
2023-05-13T02:09:24.992Z,16.53
2023-05-13T02:11:53.326Z,16.51
2023-05-13T02:14:23.048Z,16.51
2023-05-13T02:16:51.466Z,16.52
2023-05-13T02:19:19.977Z,16.54
2023-05-13T02:21:48.343Z,16.55
2023-05-13T02:24:18.076Z,16.55
2023-05-13T02:26:46.435Z,16.57
2023-05-13T02:29:15.916Z,16.58
2023-05-13T02:31:45.690Z,16.59
2023-05-13T02:34:14.060Z,16.59
2023-05-13T02:36:42.486Z,16.61
2023-05-13T02:39:10.838Z,16.59
2023-05-13T02:41:39.222Z,16.58
2023-05-13T02:44:07.683Z,16.55
2023-05-13T02:46:36.065Z,16.54
2023-05-13T02:49:05.837Z,16.54
2023-05-13T02:51:34.239Z,16.56
2023-05-13T02:54:02.596Z,16.56
2023-05-13T02:56:30.930Z,16.57
2023-05-13T02:58:59.463Z,16.56
2023-05-13T03:01:27.860Z,16.56
2023-05-13T03:03:56.330Z,16.57
2023-05-13T03:06:26.187Z,16.57
2023-05-13T03:08:55.306Z,16.56
2023-05-13T03:11:23.707Z,16.55
2023-05-13T03:13:52.037Z,16.54
2023-05-13T03:16:20.613Z,16.54
2023-05-13T03:18:49.119Z,16.54
2023-05-13T03:21:17.622Z,16.54
2023-05-13T03:23:47.388Z,16.53
2023-05-13T03:26:16.572Z,16.54
2023-05-13T03:28:44.969Z,16.55
2023-05-13T03:31:13.663Z,16.53
2023-05-13T03:33:42.070Z,16.54
2023-05-13T03:36:10.777Z,16.53
2023-05-13T03:38:39.067Z,16.53
2023-05-13T03:41:08.985Z,16.50
2023-05-13T03:43:37.406Z,16.49
2023-05-13T03:46:05.870Z,16.47
2023-05-13T03:48:34.212Z,16.47
2023-05-13T03:51:03.271Z,16.47
2023-05-13T03:53:31.706Z,16.48
2023-05-13T03:56:00.061Z,16.48
2023-05-13T03:58:29.778Z,16.49
2023-05-13T04:00:58.196Z,16.50
2023-05-13T04:03:26.739Z,16.53
2023-05-13T04:05:55.142Z,16.54
2023-05-13T04:08:23.472Z,16.57
2023-05-13T04:10:51.799Z,16.59
2023-05-13T04:13:20.139Z,16.61
2023-05-13T04:15:49.980Z,16.62
2023-05-13T04:18:18.316Z,16.65
2023-05-13T04:20:46.710Z,16.67
2023-05-13T04:23:15.010Z,16.68
2023-05-13T04:25:43.472Z,16.69
2023-05-13T04:28:11.781Z,16.69
2023-05-13T04:30:40.172Z,16.68
2023-05-13T04:33:09.962Z,16.67
2023-05-13T04:35:38.378Z,16.67
2023-05-13T04:38:06.879Z,16.67
2023-05-13T04:40:35.297Z,16.67
2023-05-13T04:43:03.735Z,16.67
2023-05-13T04:45:32.805Z,16.67
2023-05-13T04:48:01.228Z,16.69
2023-05-13T04:50:31.980Z,16.69
2023-05-13T04:53:00.938Z,16.71
2023-05-13T04:55:29.391Z,16.73
2023-05-13T04:57:58.880Z,16.78
2023-05-13T05:00:27.349Z,16.80
2023-05-13T05:02:56.761Z,16.81
2023-05-13T05:05:25.191Z,16.84
2023-05-13T05:07:55.108Z,16.87
2023-05-13T05:10:23.729Z,16.90
2023-05-13T05:12:52.341Z,16.93
2023-05-13T05:15:21.142Z,16.95
2023-05-13T05:17:49.587Z,17.00
2023-05-13T05:20:18.204Z,17.04
2023-05-13T05:22:46.627Z,17.07
2023-05-13T05:25:16.433Z,17.10
2023-05-13T05:27:44.773Z,17.17
2023-05-13T05:30:15.150Z,17.20
2023-05-13T05:32:43.695Z,17.24
2023-05-13T05:35:12.164Z,17.28
2023-05-13T05:37:40.543Z,17.30
2023-05-13T05:40:10.780Z,17.33
2023-05-13T05:42:40.625Z,17.36
2023-05-13T05:45:10.579Z,17.37
2023-05-13T05:47:39.020Z,17.37
2023-05-13T05:50:08.805Z,17.39
2023-05-13T05:52:37.092Z,17.43
2023-05-13T05:55:07.309Z,17.45
2023-05-13T05:57:35.727Z,17.47
2023-05-13T06:00:07.305Z,17.47
2023-05-13T06:02:36.216Z,17.48
2023-05-13T06:05:04.803Z,17.45
2023-05-13T06:07:33.185Z,17.44
2023-05-13T06:10:01.556Z,17.44
2023-05-13T06:12:29.978Z,17.45
2023-05-13T06:14:58.382Z,17.46
2023-05-13T06:17:28.191Z,17.47
2023-05-13T06:19:56.665Z,17.48
2023-05-13T06:22:25.024Z,17.49
2023-05-13T06:24:53.392Z,17.52
2023-05-13T06:27:21.783Z,17.55
2023-05-13T06:29:50.184Z,17.58
2023-05-13T06:32:18.547Z,17.61
2023-05-13T06:34:48.567Z,17.64
2023-05-13T06:37:16.991Z,17.69
2023-05-13T06:39:45.500Z,17.74
2023-05-13T06:42:14.357Z,17.79
2023-05-13T06:44:42.872Z,17.86
2023-05-13T06:47:14.949Z,17.94
2023-05-13T06:49:43.504Z,18.02
2023-05-13T06:52:13.268Z,18.11
2023-05-13T06:54:41.601Z,18.17
2023-05-13T06:57:09.943Z,18.23
2023-05-13T06:59:38.273Z,18.26
2023-05-13T07:02:09.753Z,18.26
2023-05-13T07:04:38.315Z,18.24
2023-05-13T07:07:06.824Z,18.20
2023-05-13T07:09:36.559Z,18.16
2023-05-13T07:12:05.397Z,18.14
2023-05-13T07:14:33.738Z,18.10
2023-05-13T07:17:02.353Z,18.07
2023-05-13T07:19:31.421Z,18.03
2023-05-13T07:21:59.756Z,18.00
2023-05-13T07:24:28.097Z,17.97
2023-05-13T07:26:57.876Z,17.95
2023-05-13T07:29:27.605Z,17.97
2023-05-13T07:31:56.131Z,17.98
2023-05-13T07:34:24.508Z,18.01
2023-05-13T07:36:52.987Z,18.03
2023-05-13T07:39:21.337Z,18.05
2023-05-13T07:41:50.132Z,18.06
2023-05-13T07:44:19.948Z,18.12
2023-05-13T07:46:48.942Z,18.21
2023-05-13T07:49:17.708Z,18.29
2023-05-13T07:51:46.143Z,18.40
2023-05-13T07:54:14.786Z,18.51
2023-05-13T07:56:44.281Z,18.60
2023-05-13T07:59:12.736Z,18.71
2023-05-13T08:01:44.627Z,18.82
2023-05-13T08:04:13.227Z,18.98
2023-05-13T08:06:41.839Z,19.14
2023-05-13T08:09:12.298Z,19.22
2023-05-13T08:11:40.804Z,19.28
2023-05-13T08:14:09.243Z,19.33
2023-05-13T08:16:37.801Z,19.36
2023-05-13T08:19:07.629Z,19.32
2023-05-13T08:21:36.032Z,19.25
2023-05-13T08:24:04.606Z,19.19
2023-05-13T08:26:32.948Z,19.15
2023-05-13T08:29:01.529Z,19.08
2023-05-13T08:31:30.287Z,19.01
2023-05-13T08:33:58.757Z,18.96
2023-05-13T08:36:28.714Z,18.89
2023-05-13T08:38:57.128Z,18.83
2023-05-13T08:41:25.642Z,18.79
2023-05-13T08:43:55.259Z,18.77
2023-05-13T08:46:26.804Z,18.78
2023-05-13T08:48:57.220Z,18.80
2023-05-13T08:51:27.096Z,18.83
2023-05-13T08:53:57.425Z,18.88
2023-05-13T08:56:28.463Z,18.95
2023-05-13T08:58:57.102Z,19.03
2023-05-13T09:01:27.697Z,19.12
2023-05-13T09:04:02.602Z,19.19
2023-05-13T09:06:32.468Z,19.28
2023-05-13T09:09:00.928Z,19.40
2023-05-13T09:11:30.402Z,19.46
2023-05-13T09:13:59.954Z,19.50
2023-05-13T09:16:32.792Z,19.54
2023-05-13T09:19:04.978Z,19.59
2023-05-13T09:21:36.592Z,19.69
2023-05-13T09:24:13.329Z,19.79
2023-05-13T09:26:43.154Z,19.93
2023-05-13T09:29:23.356Z,20.04
2023-05-13T09:31:54.809Z,20.23
2023-05-13T09:34:31.734Z,20.37
2023-05-13T09:37:04.269Z,20.53
2023-05-13T09:39:35.780Z,20.71
2023-05-13T09:42:05.598Z,20.85
2023-05-13T09:44:35.147Z,21.01
2023-05-13T09:47:03.835Z,21.17
2023-05-13T09:49:33.638Z,21.27
2023-05-13T09:52:03.631Z,21.38
2023-05-13T09:54:37.218Z,21.43
2023-05-13T09:57:06.774Z,21.38
2023-05-13T09:59:35.256Z,21.28
2023-05-13T10:02:07.433Z,21.15
2023-05-13T10:04:36.039Z,21.06
2023-05-13T10:07:06.894Z,20.90
2023-05-13T10:09:38.646Z,20.73
2023-05-13T10:12:11.418Z,20.55
2023-05-13T10:14:41.195Z,20.40
2023-05-13T10:17:10.131Z,20.30
2023-05-13T10:19:39.124Z,20.21
2023-05-13T10:22:09.217Z,20.13
2023-05-13T10:24:40.172Z,20.06
2023-05-13T10:27:09.386Z,20.01
2023-05-13T10:29:40.690Z,19.93
2023-05-13T10:32:11.378Z,19.86
2023-05-13T10:34:41.171Z,19.78
2023-05-13T10:37:34.492Z,19.66
2023-05-13T10:40:40.607Z,19.60
2023-05-13T10:43:19.107Z,19.54
2023-05-13T10:45:49.703Z,19.55
2023-05-13T10:48:19.799Z,19.54
2023-05-13T10:50:57.223Z,19.51
2023-05-13T10:53:32.563Z,19.50
2023-05-13T10:56:01.428Z,19.50
2023-05-13T10:58:36.785Z,19.47
2023-05-13T11:01:16.944Z,19.41
2023-05-13T11:03:54.311Z,19.35
2023-05-13T11:06:24.696Z,19.32
2023-05-13T11:08:56.164Z,19.30
2023-05-13T11:11:33.205Z,19.27
2023-05-13T11:14:18.099Z,19.25
2023-05-13T11:16:54.943Z,19.24
2023-05-13T11:19:27.512Z,19.29
2023-05-13T11:21:58.966Z,19.34
2023-05-13T11:24:28.660Z,19.37
2023-05-13T11:26:59.999Z,19.42
2023-05-13T11:29:34.545Z,19.46
2023-05-13T11:32:05.000Z,19.55
2023-05-13T11:34:35.316Z,19.64
2023-05-13T11:37:11.618Z,19.69
2023-05-13T11:39:42.503Z,19.74
2023-05-13T11:42:12.270Z,19.77
2023-05-13T11:44:47.775Z,19.76
2023-05-13T11:47:16.317Z,19.77
2023-05-13T11:49:46.474Z,19.78
2023-05-13T11:52:16.961Z,19.80
2023-05-13T11:54:49.621Z,19.81
2023-05-13T11:57:26.462Z,19.84
2023-05-13T11:59:58.010Z,19.94
2023-05-13T12:02:28.931Z,20.04
2023-05-13T12:05:00.602Z,20.16
2023-05-13T12:07:29.430Z,20.29
2023-05-13T12:10:01.591Z,20.49
2023-05-13T12:12:32.504Z,20.73
2023-05-13T12:15:05.080Z,20.90
2023-05-13T12:17:34.254Z,21.04
2023-05-13T12:20:12.008Z,21.10
2023-05-13T12:22:57.171Z,21.10
2023-05-13T12:25:45.803Z,20.96
2023-05-13T12:28:19.809Z,20.84
2023-05-13T12:30:54.449Z,20.68
2023-05-13T12:33:24.932Z,20.58
2023-05-13T12:35:55.017Z,20.52
2023-05-13T12:38:25.805Z,20.49
2023-05-13T12:40:56.320Z,20.55
2023-05-13T12:43:24.907Z,20.62
2023-05-13T12:45:56.592Z,20.70
2023-05-13T12:48:26.188Z,20.74
2023-05-13T12:50:54.807Z,20.78
2023-05-13T12:53:23.144Z,20.85
2023-05-13T12:55:51.558Z,20.91
2023-05-13T12:58:21.418Z,20.93
2023-05-13T13:00:49.983Z,20.91
2023-05-13T13:03:18.807Z,20.85
2023-05-13T13:05:48.279Z,20.75
2023-05-13T13:08:16.742Z,20.61
2023-05-13T13:10:45.124Z,20.50
2023-05-13T13:13:13.643Z,20.38
2023-05-13T13:15:43.371Z,20.30
2023-05-13T13:18:11.805Z,20.28
2023-05-13T13:20:40.228Z,20.30
2023-05-13T13:23:09.175Z,20.34
2023-05-13T13:25:37.687Z,20.33
2023-05-13T13:28:06.305Z,20.27
2023-05-13T13:30:34.667Z,20.21
2023-05-13T13:33:04.601Z,20.19
2023-05-13T13:35:33.074Z,20.19
2023-05-13T13:38:01.504Z,20.19
2023-05-13T13:40:29.844Z,20.19
2023-05-13T13:42:58.160Z,20.19
2023-05-13T13:45:26.579Z,20.18
2023-05-13T13:47:55.079Z,20.16
2023-05-13T13:50:25.328Z,20.13
2023-05-13T13:52:54.100Z,20.11
2023-05-13T13:55:23.614Z,20.11
2023-05-13T13:57:52.107Z,20.11
2023-05-13T14:00:20.995Z,20.10
2023-05-13T14:02:49.726Z,20.09
2023-05-13T14:05:18.544Z,20.04
2023-05-13T14:07:49.668Z,19.99
2023-05-13T14:10:18.074Z,19.94
2023-05-13T14:12:46.533Z,19.90
2023-05-13T14:15:15.015Z,19.86
2023-05-13T14:17:43.565Z,19.83
2023-05-13T14:20:12.562Z,19.82
2023-05-13T14:22:40.911Z,19.81
2023-05-13T14:25:11.540Z,19.80
2023-05-13T14:27:39.953Z,19.78
2023-05-13T14:30:09.991Z,19.73
2023-05-13T14:32:38.406Z,19.70
2023-05-13T14:35:08.600Z,19.67
2023-05-13T14:37:36.948Z,19.68
2023-05-13T14:40:07.154Z,19.67
2023-05-13T14:42:37.077Z,19.67
2023-05-13T14:45:06.597Z,19.65
2023-05-13T14:47:35.370Z,19.65
2023-05-13T14:50:03.793Z,19.65
2023-05-13T14:52:32.224Z,19.66
2023-05-13T14:55:00.782Z,19.66
2023-05-13T14:57:29.187Z,19.67
2023-05-13T15:00:00.037Z,19.69
2023-05-13T15:02:28.783Z,19.73
2023-05-13T15:04:57.317Z,19.77
2023-05-13T15:07:25.766Z,19.79
2023-05-13T15:09:54.334Z,19.81
2023-05-13T15:12:23.105Z,19.85
2023-05-13T15:14:54.079Z,19.88
2023-05-13T15:17:23.876Z,19.90
2023-05-13T15:19:52.264Z,19.92
2023-05-13T15:22:20.649Z,19.92
2023-05-13T15:24:49.006Z,19.93
2023-05-13T15:27:17.399Z,19.93
2023-05-13T15:29:45.749Z,19.91
2023-05-13T15:32:14.202Z,19.90
2023-05-13T15:34:44.692Z,19.88
2023-05-13T15:37:13.054Z,19.87
2023-05-13T15:39:47.482Z,19.83
2023-05-13T15:42:15.856Z,19.82
2023-05-13T15:44:45.638Z,19.79
2023-05-13T15:47:14.102Z,19.78
2023-05-13T15:49:43.894Z,19.79
2023-05-13T15:52:12.322Z,19.79
2023-05-13T15:54:40.766Z,19.80
2023-05-13T15:57:09.209Z,19.79
2023-05-13T15:59:37.666Z,19.78
2023-05-13T16:02:06.253Z,19.78
2023-05-13T16:04:34.782Z,19.76
2023-05-13T16:07:07.282Z,19.76
2023-05-13T16:09:35.978Z,19.75
2023-05-13T16:12:04.672Z,19.73
2023-05-13T16:14:33.727Z,19.72
2023-05-13T16:17:02.203Z,19.69
2023-05-13T16:19:30.899Z,19.67
2023-05-13T16:21:59.270Z,19.63
2023-05-13T16:24:29.034Z,19.61
2023-05-13T16:26:57.657Z,19.61
2023-05-13T16:29:26.167Z,19.57
2023-05-13T16:31:54.653Z,19.56
2023-05-13T16:34:23.285Z,19.53
2023-05-13T16:36:51.723Z,19.52
2023-05-13T16:39:20.016Z,19.50
2023-05-13T16:41:49.828Z,19.48
2023-05-13T16:44:18.209Z,19.48
2023-05-13T16:46:46.700Z,19.49
2023-05-13T16:49:15.134Z,19.49
2023-05-13T16:51:43.481Z,19.50
2023-05-13T16:54:11.923Z,19.49
2023-05-13T16:56:40.539Z,19.48
2023-05-13T16:59:11.286Z,19.45
2023-05-13T17:01:39.707Z,19.45
2023-05-13T17:04:08.140Z,19.45
2023-05-13T17:06:36.463Z,19.46
2023-05-13T17:09:05.037Z,19.49
2023-05-13T17:11:33.373Z,19.47
2023-05-13T17:14:01.828Z,19.48
2023-05-13T17:16:31.751Z,19.47
2023-05-13T17:19:00.518Z,19.46
2023-05-13T17:21:28.917Z,19.44
2023-05-13T17:23:57.330Z,19.43
2023-05-13T17:26:26.412Z,19.40
2023-05-13T17:28:55.124Z,19.37
2023-05-13T17:31:25.048Z,19.32
2023-05-13T17:33:54.985Z,19.28
2023-05-13T17:36:23.432Z,19.25
2023-05-13T17:38:52.238Z,19.21
2023-05-13T17:41:20.655Z,19.18
2023-05-13T17:43:49.117Z,19.17
2023-05-13T17:46:17.568Z,19.11
2023-05-13T17:48:46.055Z,19.08
2023-05-13T17:51:15.873Z,19.07
2023-05-13T17:53:44.293Z,19.05
2023-05-13T17:56:12.856Z,19.03
2023-05-13T17:58:41.269Z,19.04
2023-05-13T18:01:09.673Z,19.04
2023-05-13T18:03:38.055Z,19.06
2023-05-13T18:06:06.956Z,19.07
2023-05-13T18:08:36.839Z,19.04
2023-05-13T18:11:05.273Z,19.03
2023-05-13T18:13:35.486Z,19.04
2023-05-13T18:16:04.638Z,19.03
2023-05-13T18:18:33.099Z,19.04
2023-05-13T18:21:01.666Z,19.07
2023-05-13T18:23:30.250Z,19.06
2023-05-13T18:26:00.093Z,19.06
2023-05-13T18:28:28.462Z,19.08
2023-05-13T18:30:56.860Z,19.08
2023-05-13T18:33:25.277Z,19.08
2023-05-13T18:35:54.001Z,19.06
2023-05-13T18:38:22.325Z,19.07
2023-05-13T18:40:50.804Z,19.06
2023-05-13T18:43:20.916Z,19.05
2023-05-13T18:45:49.439Z,19.05
2023-05-13T18:48:17.821Z,19.04
2023-05-13T18:50:46.272Z,19.04
2023-05-13T18:53:14.932Z,19.03
2023-05-13T18:55:43.444Z,19.01
2023-05-13T18:58:11.807Z,19.01
2023-05-13T19:00:41.831Z,18.99
2023-05-13T19:03:10.471Z,19.00
2023-05-13T19:05:38.956Z,18.98
2023-05-13T19:08:08.126Z,18.96
2023-05-13T19:10:39.950Z,18.94
2023-05-13T19:13:08.938Z,18.91
2023-05-13T19:15:37.859Z,18.86
2023-05-13T19:18:07.960Z,18.82
2023-05-13T19:20:36.367Z,18.79
2023-05-13T19:23:05.093Z,18.77
2023-05-13T19:25:33.729Z,18.72
2023-05-13T19:28:03.391Z,18.70
2023-05-13T19:30:32.191Z,18.66
2023-05-13T19:33:00.754Z,18.66
2023-05-13T19:35:31.113Z,18.62
2023-05-13T19:38:00.260Z,18.64
2023-05-13T19:40:28.915Z,18.63
2023-05-13T19:42:57.307Z,18.65
2023-05-13T19:45:25.945Z,18.62
2023-05-13T19:47:54.601Z,18.63
2023-05-13T19:50:23.484Z,18.64
2023-05-13T19:52:54.147Z,18.65
2023-05-13T19:55:22.682Z,18.65
2023-05-13T19:57:51.130Z,18.65
2023-05-13T20:00:20.167Z,18.65
2023-05-13T20:02:48.718Z,18.63
2023-05-13T20:05:17.390Z,18.61
2023-05-13T20:07:45.873Z,18.63
2023-05-13T20:10:15.831Z,18.61
2023-05-13T20:12:45.837Z,18.63
2023-05-13T20:15:15.334Z,18.64
2023-05-13T20:17:45.287Z,18.66
2023-05-13T20:20:14.106Z,18.68
2023-05-13T20:22:42.836Z,18.70
2023-05-13T20:25:12.033Z,18.69
2023-05-13T20:27:41.849Z,18.68
2023-05-13T20:30:12.493Z,18.67
2023-05-13T20:32:41.217Z,18.67
2023-05-13T20:35:11.180Z,18.67
2023-05-13T20:37:39.855Z,18.67
2023-05-13T20:40:10.904Z,18.68
2023-05-13T20:42:39.544Z,18.70
2023-05-13T20:45:10.722Z,18.69
2023-05-13T20:47:39.114Z,18.70
2023-05-13T20:50:09.198Z,18.70
2023-05-13T20:52:37.668Z,18.70
2023-05-13T20:55:07.727Z,18.73
2023-05-13T20:57:36.163Z,18.74
2023-05-13T21:00:05.414Z,18.75
2023-05-13T21:02:35.242Z,18.74
2023-05-13T21:05:04.221Z,18.74
2023-05-13T21:07:32.955Z,18.74
2023-05-13T21:10:01.535Z,18.73
2023-05-13T21:12:30.170Z,18.72
2023-05-13T21:14:59.173Z,18.71
2023-05-13T21:17:27.798Z,18.70
2023-05-13T21:19:57.652Z,18.68
2023-05-13T21:22:26.076Z,18.69
2023-05-13T21:24:54.531Z,18.68
2023-05-13T21:27:22.834Z,18.68
2023-05-13T21:29:52.610Z,18.69
2023-05-13T21:32:20.918Z,18.71
2023-05-13T21:34:49.286Z,18.71
2023-05-13T21:37:19.070Z,18.71
2023-05-13T21:39:47.441Z,18.71
2023-05-13T21:42:15.929Z,18.73
2023-05-13T21:44:44.266Z,18.74
2023-05-13T21:47:12.669Z,18.75
2023-05-13T21:49:41.091Z,18.75
2023-05-13T21:52:09.505Z,18.75
2023-05-13T21:54:39.250Z,18.73
2023-05-13T21:57:08.112Z,18.75
2023-05-13T21:59:36.990Z,18.74
2023-05-13T22:02:05.478Z,18.74
2023-05-13T22:04:33.931Z,18.75
2023-05-13T22:07:03.383Z,18.74
2023-05-13T22:09:31.767Z,18.72
2023-05-13T22:12:01.606Z,18.72
2023-05-13T22:14:30.248Z,18.73
2023-05-13T22:17:09.057Z,18.74
2023-05-13T22:19:38.015Z,18.76
2023-05-13T22:22:06.769Z,18.77
2023-05-13T22:24:35.035Z,18.77
2023-05-13T22:27:05.223Z,18.78
2023-05-13T22:29:33.846Z,18.80
2023-05-13T22:32:02.711Z,18.81
2023-05-13T22:34:31.134Z,18.82
2023-05-13T22:36:59.567Z,18.83
2023-05-13T22:39:28.109Z,18.83
2023-05-13T22:41:56.513Z,18.85
2023-05-13T22:44:26.225Z,18.86
2023-05-13T22:46:54.706Z,18.88
2023-05-13T22:49:23.182Z,18.86
2023-05-13T22:51:52.004Z,18.87
2023-05-13T22:54:20.384Z,18.86
2023-05-13T22:56:48.731Z,18.87
2023-05-13T22:59:17.094Z,18.87
2023-05-13T23:01:46.890Z,18.87
2023-05-13T23:04:15.341Z,18.87
2023-05-13T23:06:43.742Z,18.87
2023-05-13T23:09:12.148Z,18.85
2023-05-13T23:11:41.050Z,18.85
2023-05-13T23:14:09.995Z,18.84
2023-05-13T23:16:38.489Z,18.86
2023-05-13T23:19:09.698Z,18.83
2023-05-13T23:21:38.120Z,18.83
2023-05-13T23:24:06.749Z,18.83
2023-05-13T23:26:35.057Z,18.82
2023-05-13T23:29:03.500Z,18.83
2023-05-13T23:31:31.958Z,18.82
2023-05-13T23:34:00.443Z,18.81
2023-05-13T23:36:30.231Z,18.83
2023-05-13T23:38:58.560Z,18.83
2023-05-13T23:41:27.061Z,18.82
2023-05-13T23:43:55.425Z,18.80
2023-05-13T23:46:23.976Z,18.78
2023-05-13T23:48:52.404Z,18.79
2023-05-13T23:51:20.890Z,18.77
2023-05-13T23:53:50.825Z,18.76
2023-05-13T23:56:19.171Z,18.74
2023-05-13T23:58:47.491Z,18.73
